Strona główna
METAR-TAF:

METAR-TAF

Lotnisko :

Kraków, Polska

Port lotniczy Kraków-Balice

Szerokość geograficzna: 50-05N, Długość geograficzna: 019-48E, wysokość: 237 m

Aktualna obserwacja pogody

Raport powstał 31 minut temu, godzina 12:30 UTC
Wiatr 3 kt z kierunków zmiennych
Temperatura 5°C
Wilgotność 56%
Ciśnienie 1025 hPa
Widzialność 10 km lub więcej
Przerywane chmury na wysokości 3100 ft

METAR: EPKK 261230Z VRB03KT 9999 BKN031 05/M03 Q1025

czas: 15:01 (13:01 UTC)

Prognoza

Raport powstał 1 godzina i 31 minut temu, godzina 11:30 UTC
Prognoza ważna od 26 godzina 12 UTC do 27 godzina 12 UTC
Wiatr 6 kt od północny wschód
Widzialność 10 km lub więcej
Rozproszone chmury na wysokości 3000 ft
Stopniowe zmiany
od 27 godzina 05 UTC do 27 godzina 08 UTC
Wiatr 11 kt od zachodnio-południowy zachód

TAF: EPKK 261130Z 2612/2712 05006KT 9999 SCT030 BECMG 2705/2708 25011KT

Obserwacja i prognoza pogody dla ponad 4000 lotnisk (raport METAR i TAF).

Dostępne stacje oznaczono żółtymi i czerwonymi punktami na mapie.

Najedź kursorem aby zobaczyć nazwę stacji.

Kliknij aby zobaczyć obserwacje i prognozy pogody.

Aby zmienić mapę: kliknij na zielony przycisk z czarnym krzyżykiem, aby powiększyć; na zielony przycisk z myślnikiem, aby pomniejszyć; na zielone strzałki, aby przejść do map sąsiednich.


METAR-TAF: